sensor_id;sensor_type;location;lat;lon;timestamp;pressure;altitude;pressure_sealevel;temperature;humidity
4133;BME280;2080;51.038;7.008;2023-06-04T00:01:52;47633.19;;;-142.53;36.34
4133;BME280;2080;51.038;7.008;2023-06-04T00:04:17;47648.63;;;-142.53;36.48
4133;BME280;2080;51.038;7.008;2023-06-04T00:06:43;47648.63;;;-142.53;36.11
4133;BME280;2080;51.038;7.008;2023-06-04T00:09:08;47638.97;;;-142.53;36.41
4133;BME280;2080;51.038;7.008;2023-06-04T00:11:38;47613.94;;;-142.53;36.14
4133;BME280;2080;51.038;7.008;2023-06-04T00:14:04;47621.66;;;-142.53;36.46
4133;BME280;2080;51.038;7.008;2023-06-04T00:16:29;47625.50;;;-142.53;36.72
4133;BME280;2080;51.038;7.008;2023-06-04T00:18:54;47610.09;;;-142.53;36.76
4133;BME280;2080;51.038;7.008;2023-06-04T00:21:19;47637.06;;;-142.53;37.51
4133;BME280;2080;51.038;7.008;2023-06-04T00:23:47;47633.19;;;-142.53;37.60
4133;BME280;2080;51.038;7.008;2023-06-04T00:26:12;47671.72;;;-142.53;37.52
4133;BME280;2080;51.038;7.008;2023-06-04T00:28:40;47640.91;;;-142.53;37.85
4133;BME280;2080;51.038;7.008;2023-06-04T00:31:05;47644.75;;;-142.53;37.75
4133;BME280;2080;51.038;7.008;2023-06-04T00:33:31;47652.47;;;-142.53;38.21
4133;BME280;2080;51.038;7.008;2023-06-04T00:35:56;47664.03;;;-142.53;38.35
4133;BME280;2080;51.038;7.008;2023-06-04T00:38:21;47613.94;;;-142.53;38.62
4133;BME280;2080;51.038;7.008;2023-06-04T00:40:47;47640.91;;;-142.53;39.07
4133;BME280;2080;51.038;7.008;2023-06-04T00:43:15;47629.34;;;-142.53;39.00
4133;BME280;2080;51.038;7.008;2023-06-04T00:45:40;47656.31;;;-142.53;39.34
4133;BME280;2080;51.038;7.008;2023-06-04T00:48:08;47648.63;;;-142.53;39.51
4133;BME280;2080;51.038;7.008;2023-06-04T00:50:33;47683.28;;;-142.53;39.79
4133;BME280;2080;51.038;7.008;2023-06-04T00:53:00;47642.84;;;-142.53;39.81
4133;BME280;2080;51.038;7.008;2023-06-04T00:55:28;47625.50;;;-142.53;39.74
4133;BME280;2080;51.038;7.008;2023-06-04T00:57:53;47633.19;;;-142.53;39.33
4133;BME280;2080;51.038;7.008;2023-06-04T01:00:18;47648.63;;;-142.53;39.92
4133;BME280;2080;51.038;7.008;2023-06-04T01:02:44;47660.16;;;-142.53;39.64
4133;BME280;2080;51.038;7.008;2023-06-04T01:07:38;47644.75;;;-142.53;40.75
4133;BME280;2080;51.038;7.008;2023-06-04T01:10:06;47664.03;;;-142.53;40.92
4133;BME280;2080;51.038;7.008;2023-06-04T01:12:33;47660.16;;;-142.53;41.00
4133;BME280;2080;51.038;7.008;2023-06-04T01:14:59;47652.47;;;-142.53;41.05
4133;BME280;2080;51.038;7.008;2023-06-04T01:17:31;47652.47;;;-142.53;41.19
4133;BME280;2080;51.038;7.008;2023-06-04T01:22:44;47679.44;;;-142.53;41.06
4133;BME280;2080;51.038;7.008;2023-06-04T01:25:24;47679.44;;;-142.53;41.84
4133;BME280;2080;51.038;7.008;2023-06-04T01:27:52;47660.16;;;-142.53;41.71
4133;BME280;2080;51.038;7.008;2023-06-04T01:30:24;47648.63;;;-142.53;41.90
4133;BME280;2080;51.038;7.008;2023-06-04T01:32:53;47683.28;;;-142.53;42.28
4133;BME280;2080;51.038;7.008;2023-06-04T01:35:21;47617.78;;;-142.53;43.13
4133;BME280;2080;51.038;7.008;2023-06-04T01:37:46;47652.47;;;-142.53;42.85
4133;BME280;2080;51.038;7.008;2023-06-04T01:40:12;47656.31;;;-142.53;43.26
4133;BME280;2080;51.038;7.008;2023-06-04T01:42:38;47652.47;;;-142.53;43.93
4133;BME280;2080;51.038;7.008;2023-06-04T01:45:03;47648.63;;;-142.53;44.03
4133;BME280;2080;51.038;7.008;2023-06-04T01:47:29;47652.47;;;-142.53;43.75
4133;BME280;2080;51.038;7.008;2023-06-04T01:49:57;47642.84;;;-142.53;44.52
4133;BME280;2080;51.038;7.008;2023-06-04T01:52:26;47635.13;;;-142.53;44.63
4133;BME280;2080;51.038;7.008;2023-06-04T01:54:52;47650.53;;;-142.53;44.46
4133;BME280;2080;51.038;7.008;2023-06-04T01:57:20;47671.72;;;-142.53;44.98
4133;BME280;2080;51.038;7.008;2023-06-04T01:59:45;47710.25;;;-142.53;45.57
4133;BME280;2080;51.038;7.008;2023-06-04T02:02:11;47694.84;;;-142.53;45.96
4133;BME280;2080;51.038;7.008;2023-06-04T02:04:39;47679.44;;;-142.53;46.12
4133;BME280;2080;51.038;7.008;2023-06-04T02:07:10;47679.44;;;-142.53;46.32
4133;BME280;2080;51.038;7.008;2023-06-04T02:09:36;47581.19;;;-142.53;46.58
4133;BME280;2080;51.038;7.008;2023-06-04T02:12:01;47690.97;;;-142.53;47.16
4133;BME280;2080;51.038;7.008;2023-06-04T02:14:27;47650.53;;;-142.53;46.99
4133;BME280;2080;51.038;7.008;2023-06-04T02:16:52;47664.03;;;-142.53;47.33
4133;BME280;2080;51.038;7.008;2023-06-04T02:19:19;47675.56;;;-142.53;47.38
4133;BME280;2080;51.038;7.008;2023-06-04T02:21:45;47679.44;;;-142.53;47.48
4133;BME280;2080;51.038;7.008;2023-06-04T02:24:12;47652.47;;;-142.53;48.06
4133;BME280;2080;51.038;7.008;2023-06-04T02:26:38;47656.31;;;-142.53;49.07
4133;BME280;2080;51.038;7.008;2023-06-04T02:29:03;47644.75;;;-142.53;49.18
4133;BME280;2080;51.038;7.008;2023-06-04T02:31:28;47646.69;;;-142.53;49.64
4133;BME280;2080;51.038;7.008;2023-06-04T02:33:55;47679.44;;;-142.53;49.85
4133;BME280;2080;51.038;7.008;2023-06-04T02:36:20;47656.31;;;-142.53;50.76
4133;BME280;2080;51.038;7.008;2023-06-04T02:38:45;47706.38;;;-142.53;51.65
4133;BME280;2080;51.038;7.008;2023-06-04T02:41:11;47679.44;;;-142.53;51.69
4133;BME280;2080;51.038;7.008;2023-06-04T02:43:36;47640.91;;;-142.53;52.72
4133;BME280;2080;51.038;7.008;2023-06-04T02:46:01;47671.72;;;-142.53;52.71
4133;BME280;2080;51.038;7.008;2023-06-04T02:48:29;47675.56;;;-142.53;53.52
4133;BME280;2080;51.038;7.008;2023-06-04T02:50:54;47690.97;;;-142.53;53.38
4133;BME280;2080;51.038;7.008;2023-06-04T02:53:21;47652.47;;;-142.53;53.63
4133;BME280;2080;51.038;7.008;2023-06-04T02:55:51;47656.31;;;-142.53;53.75
4133;BME280;2080;51.038;7.008;2023-06-04T02:58:17;47667.88;;;-142.53;54.11
4133;BME280;2080;51.038;7.008;2023-06-04T03:00:46;47687.13;;;-142.53;53.77
4133;BME280;2080;51.038;7.008;2023-06-04T03:03:11;47648.63;;;-142.53;55.02
4133;BME280;2080;51.038;7.008;2023-06-04T03:05:39;47669.78;;;-142.53;56.60
4133;BME280;2080;51.038;7.008;2023-06-04T03:08:04;47648.63;;;-142.53;56.58
4133;BME280;2080;51.038;7.008;2023-06-04T03:10:30;47644.75;;;-142.53;56.87
4133;BME280;2080;51.038;7.008;2023-06-04T03:12:56;47675.56;;;-142.53;57.98
4133;BME280;2080;51.038;7.008;2023-06-04T03:15:21;47656.31;;;-142.53;57.87
4133;BME280;2080;51.038;7.008;2023-06-04T03:17:48;47638.97;;;-142.53;58.59
4133;BME280;2080;51.038;7.008;2023-06-04T03:20:14;47690.97;;;-142.53;57.96
4133;BME280;2080;51.038;7.008;2023-06-04T03:22:41;47648.63;;;-142.53;57.37
4133;BME280;2080;51.038;7.008;2023-06-04T03:25:06;47656.31;;;-142.53;57.17
4133;BME280;2080;51.038;7.008;2023-06-04T03:27:32;47629.34;;;-142.53;57.12
4133;BME280;2080;51.038;7.008;2023-06-04T03:29:57;47671.72;;;-142.53;57.13
4133;BME280;2080;51.038;7.008;2023-06-04T03:32:22;47640.91;;;-142.53;57.40
4133;BME280;2080;51.038;7.008;2023-06-04T03:34:48;47667.88;;;-142.53;58.61
4133;BME280;2080;51.038;7.008;2023-06-04T03:37:13;47671.72;;;-142.53;58.29
4133;BME280;2080;51.038;7.008;2023-06-04T03:39:38;47681.34;;;-142.53;58.38
4133;BME280;2080;51.038;7.008;2023-06-04T03:42:06;47698.69;;;-142.53;58.32
4133;BME280;2080;51.038;7.008;2023-06-04T03:44:31;47687.13;;;-142.53;58.14
4133;BME280;2080;51.038;7.008;2023-06-04T03:46:56;47667.88;;;-142.53;58.09
4133;BME280;2080;51.038;7.008;2023-06-04T03:49:21;47675.56;;;-142.53;57.88
4133;BME280;2080;51.038;7.008;2023-06-04T03:51:47;47644.75;;;-142.53;57.43
4133;BME280;2080;51.038;7.008;2023-06-04T03:54:12;47679.44;;;-142.53;57.53
4133;BME280;2080;51.038;7.008;2023-06-04T03:56:44;47671.72;;;-142.53;57.94
4133;BME280;2080;51.038;7.008;2023-06-04T03:59:09;47671.72;;;-142.53;58.61
4133;BME280;2080;51.038;7.008;2023-06-04T04:01:34;47675.56;;;-142.53;58.99
4133;BME280;2080;51.038;7.008;2023-06-04T04:03:59;47662.09;;;-142.53;58.89
4133;BME280;2080;51.038;7.008;2023-06-04T04:06:25;47664.03;;;-142.53;57.71
4133;BME280;2080;51.038;7.008;2023-06-04T04:08:52;47652.47;;;-142.53;56.58
4133;BME280;2080;51.038;7.008;2023-06-04T04:11:22;47621.66;;;-142.53;54.54
4133;BME280;2080;51.038;7.008;2023-06-04T04:13:47;47642.84;;;-142.53;53.68
4133;BME280;2080;51.038;7.008;2023-06-04T04:16:13;47640.91;;;-142.53;53.41
4133;BME280;2080;51.038;7.008;2023-06-04T04:18:43;47621.66;;;-142.53;50.50
4133;BME280;2080;51.038;7.008;2023-06-04T04:21:12;47588.91;;;-142.53;47.25
4133;BME280;2080;51.038;7.008;2023-06-04T04:23:39;47586.97;;;-142.53;44.19
4133;BME280;2080;51.038;7.008;2023-06-04T04:26:08;47585.06;;;-142.53;42.71
4133;BME280;2080;51.038;7.008;2023-06-04T04:28:35;47563.88;;;-142.53;41.32
4133;BME280;2080;51.038;7.008;2023-06-04T04:31:00;47538.84;;;-142.53;40.39
4133;BME280;2080;51.038;7.008;2023-06-04T04:33:27;47517.66;;;-142.53;39.58
4133;BME280;2080;51.038;7.008;2023-06-04T04:35:59;47563.88;;;-142.53;39.10
4133;BME280;2080;51.038;7.008;2023-06-04T04:38:27;47521.50;;;-142.53;38.04
4133;BME280;2080;51.038;7.008;2023-06-04T04:40:53;47548.47;;;-142.53;37.65
4133;BME280;2080;51.038;7.008;2023-06-04T04:43:32;47544.59;;;-142.53;37.13
4133;BME280;2080;51.038;7.008;2023-06-04T04:45:58;47529.19;;;-142.53;37.26
4133;BME280;2080;51.038;7.008;2023-06-04T04:48:23;47556.16;;;-142.53;36.21
4133;BME280;2080;51.038;7.008;2023-06-04T04:50:49;47552.31;;;-142.53;36.21
4133;BME280;2080;51.038;7.008;2023-06-04T04:53:16;47529.19;;;-142.53;36.26
4133;BME280;2080;51.038;7.008;2023-06-04T04:55:42;47533.06;;;-142.53;36.40
4133;BME280;2080;51.038;7.008;2023-06-04T04:58:07;47560.00;;;-142.53;35.56
4133;BME280;2080;51.038;7.008;2023-06-04T05:00:36;47552.31;;;-142.53;36.11
4133;BME280;2080;51.038;7.008;2023-06-04T05:03:02;47554.25;;;-142.53;36.29
4133;BME280;2080;51.038;7.008;2023-06-04T05:05:27;47560.00;;;-142.53;36.08
4133;BME280;2080;51.038;7.008;2023-06-04T05:07:52;47548.47;;;-142.53;35.62
4133;BME280;2080;51.038;7.008;2023-06-04T05:10:17;47579.28;;;-142.53;35.92
4133;BME280;2080;51.038;7.008;2023-06-04T05:12:56;47536.91;;;-142.53;35.93
4133;BME280;2080;51.038;7.008;2023-06-04T05:15:21;47571.56;;;-142.53;36.04
4133;BME280;2080;51.038;7.008;2023-06-04T05:17:47;47542.69;;;-142.53;35.89
4133;BME280;2080;51.038;7.008;2023-06-04T05:20:13;47575.44;;;-142.53;35.84
4133;BME280;2080;51.038;7.008;2023-06-04T05:22:41;47571.56;;;-142.53;36.27
4133;BME280;2080;51.038;7.008;2023-06-04T05:25:08;47571.56;;;-142.53;36.18
4133;BME280;2080;51.038;7.008;2023-06-04T05:27:33;47560.00;;;-142.53;35.87
4133;BME280;2080;51.038;7.008;2023-06-04T05:30:02;47521.50;;;-142.53;35.92
4133;BME280;2080;51.038;7.008;2023-06-04T05:32:27;47579.28;;;-142.53;36.25
4133;BME280;2080;51.038;7.008;2023-06-04T05:34:53;47613.94;;;-142.53;36.43
4133;BME280;2080;51.038;7.008;2023-06-04T05:37:21;47579.28;;;-142.53;36.45
4133;BME280;2080;51.038;7.008;2023-06-04T05:39:48;47567.72;;;-142.53;36.49
4133;BME280;2080;51.038;7.008;2023-06-04T05:42:14;47567.72;;;-142.53;36.71
4133;BME280;2080;51.038;7.008;2023-06-04T05:44:42;47550.38;;;-142.53;36.93
4133;BME280;2080;51.038;7.008;2023-06-04T05:47:07;47598.53;;;-142.53;37.31
4133;BME280;2080;51.038;7.008;2023-06-04T05:49:34;47590.84;;;-142.53;37.54
4133;BME280;2080;51.038;7.008;2023-06-04T05:51:59;47577.34;;;-142.53;37.32
4133;BME280;2080;51.038;7.008;2023-06-04T05:54:24;47615.88;;;-142.53;37.35
4133;BME280;2080;51.038;7.008;2023-06-04T05:56:50;47583.13;;;-142.53;37.34
4133;BME280;2080;51.038;7.008;2023-06-04T05:59:15;47567.72;;;-142.53;37.04
4133;BME280;2080;51.038;7.008;2023-06-04T06:01:43;47552.31;;;-142.53;37.53
4133;BME280;2080;51.038;7.008;2023-06-04T06:04:10;47586.97;;;-142.53;37.27
4133;BME280;2080;51.038;7.008;2023-06-04T06:06:37;47579.28;;;-142.53;37.22
4133;BME280;2080;51.038;7.008;2023-06-04T06:09:02;47563.88;;;-142.53;37.50
4133;BME280;2080;51.038;7.008;2023-06-04T06:11:28;47523.41;;;-142.53;37.56
4133;BME280;2080;51.038;7.008;2023-06-04T06:13:53;47567.72;;;-142.53;37.78
4133;BME280;2080;51.038;7.008;2023-06-04T06:16:18;47563.88;;;-142.53;37.67
4133;BME280;2080;51.038;7.008;2023-06-04T06:18:44;47560.00;;;-142.53;37.42
4133;BME280;2080;51.038;7.008;2023-06-04T06:21:09;47600.47;;;-142.53;37.10
4133;BME280;2080;51.038;7.008;2023-06-04T06:23:36;47598.53;;;-142.53;36.74
4133;BME280;2080;51.038;7.008;2023-06-04T06:26:02;47560.00;;;-142.53;37.28
4133;BME280;2080;51.038;7.008;2023-06-04T06:28:28;47579.28;;;-142.53;37.44
4133;BME280;2080;51.038;7.008;2023-06-04T06:30:53;47552.31;;;-142.53;36.93
4133;BME280;2080;51.038;7.008;2023-06-04T06:33:18;47602.38;;;-142.53;36.80
4133;BME280;2080;51.038;7.008;2023-06-04T06:35:46;47544.59;;;-142.53;36.97
4133;BME280;2080;51.038;7.008;2023-06-04T06:38:12;47556.16;;;-142.53;36.82
4133;BME280;2080;51.038;7.008;2023-06-04T06:40:37;47598.53;;;-142.53;36.68
4133;BME280;2080;51.038;7.008;2023-06-04T06:43:03;47567.72;;;-142.53;36.98
4133;BME280;2080;51.038;7.008;2023-06-04T06:45:28;47588.91;;;-142.53;36.88
4133;BME280;2080;51.038;7.008;2023-06-04T06:47:53;47533.06;;;-142.53;36.87
4133;BME280;2080;51.038;7.008;2023-06-04T06:50:18;47567.72;;;-142.53;36.77
4133;BME280;2080;51.038;7.008;2023-06-04T06:52:44;47621.66;;;-142.53;36.68
4133;BME280;2080;51.038;7.008;2023-06-04T06:55:09;47525.34;;;-142.53;36.85
4133;BME280;2080;51.038;7.008;2023-06-04T06:57:34;47586.97;;;-142.53;36.98
4133;BME280;2080;51.038;7.008;2023-06-04T07:00:00;47542.69;;;-142.53;36.63
4133;BME280;2080;51.038;7.008;2023-06-04T07:02:25;47567.72;;;-142.53;35.90
4133;BME280;2080;51.038;7.008;2023-06-04T07:04:50;47544.59;;;-142.53;35.75
4133;BME280;2080;51.038;7.008;2023-06-04T07:07:15;47579.28;;;-142.53;35.43
4133;BME280;2080;51.038;7.008;2023-06-04T07:09:41;47513.78;;;-142.53;35.41
4133;BME280;2080;51.038;7.008;2023-06-04T07:12:09;47525.34;;;-142.53;35.26
4133;BME280;2080;51.038;7.008;2023-06-04T07:14:34;47482.97;;;-142.53;35.08
4133;BME280;2080;51.038;7.008;2023-06-04T07:17:00;47533.06;;;-142.53;35.28
4133;BME280;2080;51.038;7.008;2023-06-04T07:19:25;47548.47;;;-142.53;35.03
4133;BME280;2080;51.038;7.008;2023-06-04T07:21:52;47569.66;;;-142.53;35.22
4133;BME280;2080;51.038;7.008;2023-06-04T07:24:17;47534.97;;;-142.53;34.75
4133;BME280;2080;51.038;7.008;2023-06-04T07:26:44;47521.50;;;-142.53;35.10
4133;BME280;2080;51.038;7.008;2023-06-04T07:29:10;47521.50;;;-142.53;34.67
4133;BME280;2080;51.038;7.008;2023-06-04T07:31:35;47544.59;;;-142.53;34.74
4133;BME280;2080;51.038;7.008;2023-06-04T07:34:03;47515.72;;;-142.53;35.05
4133;BME280;2080;51.038;7.008;2023-06-04T07:36:28;47544.59;;;-142.53;34.88
4133;BME280;2080;51.038;7.008;2023-06-04T07:38:53;47561.94;;;-142.53;34.91
4133;BME280;2080;51.038;7.008;2023-06-04T07:41:21;47502.25;;;-142.53;34.36
4133;BME280;2080;51.038;7.008;2023-06-04T07:43:46;47513.78;;;-142.53;33.75
4133;BME280;2080;51.038;7.008;2023-06-04T07:46:12;47538.84;;;-142.53;32.93
4133;BME280;2080;51.038;7.008;2023-06-04T07:48:39;47548.47;;;-142.53;32.78
4133;BME280;2080;51.038;7.008;2023-06-04T07:51:05;47533.06;;;-142.53;32.69
4133;BME280;2080;51.038;7.008;2023-06-04T07:53:30;47540.75;;;-142.53;32.26
4133;BME280;2080;51.038;7.008;2023-06-04T07:55:56;47542.69;;;-142.53;31.85
4133;BME280;2080;51.038;7.008;2023-06-04T07:58:26;47498.38;;;-142.53;31.69
4133;BME280;2080;51.038;7.008;2023-06-04T08:00:54;47517.66;;;-142.53;31.14
4133;BME280;2080;51.038;7.008;2023-06-04T08:03:20;47509.94;;;-142.53;30.74
4133;BME280;2080;51.038;7.008;2023-06-04T08:05:48;47523.41;;;-142.53;30.33
4133;BME280;2080;51.038;7.008;2023-06-04T08:08:14;47506.09;;;-142.53;30.19
4133;BME280;2080;51.038;7.008;2023-06-04T08:10:40;47523.41;;;-142.53;30.20
4133;BME280;2080;51.038;7.008;2023-06-04T08:13:08;47529.19;;;-142.53;30.11
4133;BME280;2080;51.038;7.008;2023-06-04T08:15:35;47521.50;;;-142.53;29.75
4133;BME280;2080;51.038;7.008;2023-06-04T08:18:00;47531.13;;;-142.53;29.57
4133;BME280;2080;51.038;7.008;2023-06-04T08:20:28;47534.97;;;-142.53;29.79
4133;BME280;2080;51.038;7.008;2023-06-04T08:22:53;47494.53;;;-142.53;29.86
4133;BME280;2080;51.038;7.008;2023-06-04T08:25:18;47494.53;;;-142.53;29.95
4133;BME280;2080;51.038;7.008;2023-06-04T08:27:46;47525.34;;;-142.53;29.54
4133;BME280;2080;51.038;7.008;2023-06-04T08:30:12;47498.38;;;-142.53;29.22
4133;BME280;2080;51.038;7.008;2023-06-04T08:32:37;47475.28;;;-142.53;29.13
4133;BME280;2080;51.038;7.008;2023-06-04T08:35:03;47521.50;;;-142.53;29.15
4133;BME280;2080;51.038;7.008;2023-06-04T08:37:28;47482.97;;;-142.53;28.67
4133;BME280;2080;51.038;7.008;2023-06-04T08:39:53;47496.47;;;-142.53;28.67
4133;BME280;2080;51.038;7.008;2023-06-04T08:42:30;47540.75;;;-142.53;28.75
4133;BME280;2080;51.038;7.008;2023-06-04T08:45:02;47533.06;;;-142.53;28.47
4133;BME280;2080;51.038;7.008;2023-06-04T08:47:29;47479.13;;;-142.53;28.69
4133;BME280;2080;51.038;7.008;2023-06-04T08:50:00;47517.66;;;-142.53;28.44
4133;BME280;2080;51.038;7.008;2023-06-04T08:52:27;47515.72;;;-142.53;28.75
4133;BME280;2080;51.038;7.008;2023-06-04T08:54:54;47482.97;;;-142.53;28.88
4133;BME280;2080;51.038;7.008;2023-06-04T08:57:20;47498.38;;;-142.53;28.60
4133;BME280;2080;51.038;7.008;2023-06-04T08:59:47;47508.00;;;-142.53;28.39
4133;BME280;2080;51.038;7.008;2023-06-04T09:02:14;47550.38;;;-142.53;28.58
4133;BME280;2080;51.038;7.008;2023-06-04T09:04:46;47490.69;;;-142.53;28.20
4133;BME280;2080;51.038;7.008;2023-06-04T09:07:13;47471.41;;;-142.53;28.28
4133;BME280;2080;51.038;7.008;2023-06-04T09:09:40;47479.13;;;-142.53;28.10
4133;BME280;2080;51.038;7.008;2023-06-04T09:12:10;47471.41;;;-142.53;27.94
4133;BME280;2080;51.038;7.008;2023-06-04T09:14:37;47494.53;;;-142.53;27.99
4133;BME280;2080;51.038;7.008;2023-06-04T09:17:02;47479.13;;;-142.53;27.91
4133;BME280;2080;51.038;7.008;2023-06-04T09:19:30;47519.56;;;-142.53;28.06
4133;BME280;2080;51.038;7.008;2023-06-04T09:22:00;47509.94;;;-142.53;28.06
4133;BME280;2080;51.038;7.008;2023-06-04T09:24:44;47496.47;;;-142.53;27.82
4133;BME280;2080;51.038;7.008;2023-06-04T09:27:18;47463.72;;;-142.53;28.15
4133;BME280;2080;51.038;7.008;2023-06-04T09:29:55;47534.97;;;-142.53;28.29
4133;BME280;2080;51.038;7.008;2023-06-04T09:32:30;47481.06;;;-142.53;27.64
4133;BME280;2080;51.038;7.008;2023-06-04T09:35:10;47475.28;;;-142.53;27.52
4133;BME280;2080;51.038;7.008;2023-06-04T09:37:37;47452.16;;;-142.53;27.66
4133;BME280;2080;51.038;7.008;2023-06-04T09:40:05;47482.97;;;-142.53;27.57
4133;BME280;2080;51.038;7.008;2023-06-04T09:42:44;47490.69;;;-142.53;27.35
4133;BME280;2080;51.038;7.008;2023-06-04T09:45:10;47513.78;;;-142.53;27.08
4133;BME280;2080;51.038;7.008;2023-06-04T09:47:43;47486.84;;;-142.53;27.42
4133;BME280;2080;51.038;7.008;2023-06-04T09:50:11;47494.53;;;-142.53;27.96
4133;BME280;2080;51.038;7.008;2023-06-04T09:52:37;47486.84;;;-142.53;27.59
4133;BME280;2080;51.038;7.008;2023-06-04T09:55:15;47421.34;;;-142.53;28.10
4133;BME280;2080;51.038;7.008;2023-06-04T09:57:46;47469.50;;;-142.53;27.16
4133;BME280;2080;51.038;7.008;2023-06-04T10:00:12;47546.53;;;-142.53;27.11
4133;BME280;2080;51.038;7.008;2023-06-04T10:02:45;47459.88;;;-142.53;27.08
4133;BME280;2080;51.038;7.008;2023-06-04T10:05:11;47502.25;;;-142.53;26.75
4133;BME280;2080;51.038;7.008;2023-06-04T10:07:40;47506.09;;;-142.53;26.53
4133;BME280;2080;51.038;7.008;2023-06-04T10:10:11;47492.59;;;-142.53;27.11
4133;BME280;2080;51.038;7.008;2023-06-04T10:12:38;47498.38;;;-142.53;26.93
4133;BME280;2080;51.038;7.008;2023-06-04T10:15:11;47502.25;;;-142.53;26.90
4133;BME280;2080;51.038;7.008;2023-06-04T10:17:37;47488.75;;;-142.53;26.95
4133;BME280;2080;51.038;7.008;2023-06-04T10:20:07;47517.66;;;-142.53;26.89
4133;BME280;2080;51.038;7.008;2023-06-04T10:22:37;47513.78;;;-142.53;27.03
4133;BME280;2080;51.038;7.008;2023-06-04T10:25:03;47490.69;;;-142.53;27.21
4133;BME280;2080;51.038;7.008;2023-06-04T10:27:32;47506.09;;;-142.53;26.46
4133;BME280;2080;51.038;7.008;2023-06-04T10:30:01;47500.31;;;-142.53;26.43
4133;BME280;2080;51.038;7.008;2023-06-04T10:32:29;47456.00;;;-142.53;26.65
4133;BME280;2080;51.038;7.008;2023-06-04T10:34:55;47509.94;;;-142.53;26.35
4133;BME280;2080;51.038;7.008;2023-06-04T10:37:23;47475.28;;;-142.53;26.26
4133;BME280;2080;51.038;7.008;2023-06-04T10:39:53;47456.00;;;-142.53;26.75
4133;BME280;2080;51.038;7.008;2023-06-04T10:42:20;47444.47;;;-142.53;26.34
4133;BME280;2080;51.038;7.008;2023-06-04T10:44:57;47494.53;;;-142.53;26.68
4133;BME280;2080;51.038;7.008;2023-06-04T10:47:25;47486.84;;;-142.53;26.97
4133;BME280;2080;51.038;7.008;2023-06-04T10:50:07;47482.97;;;-142.53;26.51
4133;BME280;2080;51.038;7.008;2023-06-04T10:52:32;47486.84;;;-142.53;26.14
4133;BME280;2080;51.038;7.008;2023-06-04T10:55:07;47484.91;;;-142.53;26.43
4133;BME280;2080;51.038;7.008;2023-06-04T10:57:35;47477.19;;;-142.53;26.42
4133;BME280;2080;51.038;7.008;2023-06-04T11:00:03;47498.38;;;-142.53;26.27
4133;BME280;2080;51.038;7.008;2023-06-04T11:02:31;47452.16;;;-142.53;26.34
4133;BME280;2080;51.038;7.008;2023-06-04T11:05:04;47467.56;;;-142.53;25.61
4133;BME280;2080;51.038;7.008;2023-06-04T11:07:45;47427.13;;;-142.53;25.82
4133;BME280;2080;51.038;7.008;2023-06-04T11:10:12;47498.38;;;-142.53;26.11
4133;BME280;2080;51.038;7.008;2023-06-04T11:12:45;47471.41;;;-142.53;25.98
4133;BME280;2080;51.038;7.008;2023-06-04T11:15:12;47479.13;;;-142.53;26.09
4133;BME280;2080;51.038;7.008;2023-06-04T11:17:38;47494.53;;;-142.53;26.18
4133;BME280;2080;51.038;7.008;2023-06-04T11:20:17;47463.72;;;-142.53;26.04
4133;BME280;2080;51.038;7.008;2023-06-04T11:22:55;47525.34;;;-142.53;25.84
4133;BME280;2080;51.038;7.008;2023-06-04T11:25:22;47475.28;;;-142.53;26.47
4133;BME280;2080;51.038;7.008;2023-06-04T11:27:53;47471.41;;;-142.53;26.64
4133;BME280;2080;51.038;7.008;2023-06-04T11:30:22;47486.84;;;-142.53;25.91
4133;BME280;2080;51.038;7.008;2023-06-04T11:32:48;47467.56;;;-142.53;26.00
4133;BME280;2080;51.038;7.008;2023-06-04T11:35:16;47459.88;;;-142.53;25.50
4133;BME280;2080;51.038;7.008;2023-06-04T11:37:41;47482.97;;;-142.53;25.71
4133;BME280;2080;51.038;7.008;2023-06-04T11:40:20;47486.84;;;-142.53;25.96
4133;BME280;2080;51.038;7.008;2023-06-04T11:42:49;47467.56;;;-142.53;25.77
4133;BME280;2080;51.038;7.008;2023-06-04T11:45:17;47440.59;;;-142.53;26.40
4133;BME280;2080;51.038;7.008;2023-06-04T11:47:51;47486.84;;;-142.53;26.03
4133;BME280;2080;51.038;7.008;2023-06-04T11:50:21;47544.59;;;-142.53;25.79
4133;BME280;2080;51.038;7.008;2023-06-04T11:52:48;47552.31;;;-142.53;25.38
4133;BME280;2080;51.038;7.008;2023-06-04T11:55:14;47432.91;;;-142.53;26.21
4133;BME280;2080;51.038;7.008;2023-06-04T11:57:42;47481.06;;;-142.53;26.30
4133;BME280;2080;51.038;7.008;2023-06-04T12:00:08;47463.72;;;-142.53;25.91
4133;BME280;2080;51.038;7.008;2023-06-04T12:02:38;47467.56;;;-142.53;25.47
4133;BME280;2080;51.038;7.008;2023-06-04T12:05:14;47481.06;;;-142.53;25.13
4133;BME280;2080;51.038;7.008;2023-06-04T12:07:40;47496.47;;;-142.53;26.01
4133;BME280;2080;51.038;7.008;2023-06-04T12:10:09;47482.97;;;-142.53;25.77
4133;BME280;2080;51.038;7.008;2023-06-04T12:12:34;47450.25;;;-142.53;25.25
4133;BME280;2080;51.038;7.008;2023-06-04T12:15:03;47463.72;;;-142.53;25.69
4133;BME280;2080;51.038;7.008;2023-06-04T12:17:33;47452.16;;;-142.53;25.91
4133;BME280;2080;51.038;7.008;2023-06-04T12:19:58;47363.56;;;-142.53;25.60
4133;BME280;2080;51.038;7.008;2023-06-04T12:22:25;47461.78;;;-142.53;25.37
4133;BME280;2080;51.038;7.008;2023-06-04T12:24:53;47454.09;;;-142.53;25.69
4133;BME280;2080;51.038;7.008;2023-06-04T12:27:20;47450.25;;;-142.53;26.07
4133;BME280;2080;51.038;7.008;2023-06-04T12:29:58;47463.72;;;-142.53;25.86
4133;BME280;2080;51.038;7.008;2023-06-04T12:32:25;47456.00;;;-142.53;25.71
4133;BME280;2080;51.038;7.008;2023-06-04T12:34:53;47475.28;;;-142.53;26.54
4133;BME280;2080;51.038;7.008;2023-06-04T12:37:20;47444.47;;;-142.53;26.59
4133;BME280;2080;51.038;7.008;2023-06-04T12:39:46;47459.88;;;-142.53;26.10
4133;BME280;2080;51.038;7.008;2023-06-04T12:42:11;47425.19;;;-142.53;26.44
4133;BME280;2080;51.038;7.008;2023-06-04T12:44:39;47432.91;;;-142.53;26.23
4133;BME280;2080;51.038;7.008;2023-06-04T12:47:07;47427.13;;;-142.53;26.62
4133;BME280;2080;51.038;7.008;2023-06-04T12:49:36;47475.28;;;-142.53;26.59
4133;BME280;2080;51.038;7.008;2023-06-04T12:52:01;47494.53;;;-142.53;26.42
4133;BME280;2080;51.038;7.008;2023-06-04T12:54:29;47438.69;;;-142.53;26.57
4133;BME280;2080;51.038;7.008;2023-06-04T12:56:58;47409.78;;;-142.53;26.26
4133;BME280;2080;51.038;7.008;2023-06-04T12:59:29;47463.72;;;-142.53;26.81
4133;BME280;2080;51.038;7.008;2023-06-04T13:01:55;47444.47;;;-142.53;26.47
4133;BME280;2080;51.038;7.008;2023-06-04T13:04:20;47475.28;;;-142.53;27.11
4133;BME280;2080;51.038;7.008;2023-06-04T13:06:46;47467.56;;;-142.53;26.90